Archival Weather

Tcnl Rafael Pabon

Tcnl Rafael Pabon, Bolivia (SLVM)

Report from: Thursday, December 7, 2023 12:00 PM -04
Current time: Tuesday, April 23, 2024 4:38 AM -04

Current weather – Weather history – Daily summaries
Weather forecast

Present weatherVCSH
Temperature27.0°C (80.6°F)
Heat index29.3°C (84.8°F)
Dew point22.0°C (71.6°F)
Winds Calm
Visibility3.1 mi. (5 km)
Clouds Few clouds 800 ft. (244 m)
Scattered clouds 2,000 ft. (610 m)
Ceiling: Overcast 7,000 ft. (2,134 m)
Altimeter29.94 in.Hg (1014 mB)
Relative humidity74 %
Density altitude1,714 ft. (523 m)
Flight conditions Marginal Visual Meteorological Conditions
Raw dataSLVM 071600Z 00000KT 5000 VCSH FEW008 SCT020 OVC070 27/22 Q1014
An error has occurred. This application may no longer respond until reloaded. Reload 🗙